createdAt,value
2018-10-18T00:00:38.796Z,13.00
2018-10-18T00:01:38.940Z,12.30
2018-10-18T00:02:39.091Z,12.00
2018-10-18T00:03:39.261Z,12.40
2018-10-18T00:04:39.439Z,12.60
2018-10-18T00:07:39.958Z,11.40
2018-10-18T00:08:40.133Z,12.00
2018-10-18T00:09:40.290Z,12.10
2018-10-18T00:10:40.449Z,12.30
2018-10-18T00:11:40.636Z,12.60
2018-10-18T00:12:40.812Z,11.70
2018-10-18T00:13:40.965Z,12.20
2018-10-18T00:14:41.145Z,12.60
2018-10-18T00:15:41.328Z,12.20
2018-10-18T00:16:41.511Z,12.40
2018-10-18T00:17:41.654Z,12.00
2018-10-18T00:18:41.822Z,12.30
2018-10-18T00:19:41.981Z,12.20
2018-10-18T00:20:42.160Z,12.60
2018-10-18T00:21:42.338Z,12.30
2018-10-18T00:22:42.518Z,12.50
2018-10-18T00:23:42.700Z,12.90
2018-10-18T00:24:42.874Z,12.10
2018-10-18T00:25:43.060Z,12.50
2018-10-18T00:26:43.205Z,12.60
2018-10-18T00:27:43.376Z,12.60
2018-10-18T00:28:43.539Z,12.30
2018-10-18T00:29:43.718Z,12.00
2018-10-18T00:30:43.894Z,11.20
2018-10-18T00:31:44.066Z,11.10
2018-10-18T00:32:44.237Z,11.10
2018-10-18T00:33:44.407Z,11.70
2018-10-18T00:34:44.579Z,11.30
2018-10-18T00:35:44.749Z,11.20
2018-10-18T00:36:44.917Z,10.90
2018-10-18T00:37:45.091Z,11.50
2018-10-18T00:38:45.245Z,12.30
2018-10-18T00:39:45.417Z,11.80
2018-10-18T00:40:45.575Z,12.80
2018-10-18T00:41:45.762Z,12.40
2018-10-18T00:42:45.928Z,12.60
2018-10-18T00:43:46.106Z,12.10
2018-10-18T00:44:46.288Z,12.30
2018-10-18T00:45:46.470Z,12.00
2018-10-18T00:46:46.628Z,12.60
2018-10-18T00:47:46.794Z,12.90
2018-10-18T00:48:46.978Z,12.70
2018-10-18T00:49:47.132Z,13.00
2018-10-18T00:50:47.309Z,12.40
2018-10-18T00:51:47.479Z,13.10
2018-10-18T00:52:47.669Z,14.30
2018-10-18T00:53:47.830Z,13.70
2018-10-18T00:54:47.999Z,14.40
2018-10-18T00:55:48.174Z,15.10
2018-10-18T00:56:48.350Z,15.70
2018-10-18T00:57:48.513Z,15.50
2018-10-18T00:58:48.696Z,15.10
2018-10-18T00:59:48.853Z,16.20
2018-10-18T01:00:49.035Z,15.70
2018-10-18T01:01:49.208Z,16.10
2018-10-18T01:02:49.382Z,16.60
2018-10-18T01:03:49.555Z,17.10
2018-10-18T01:04:49.736Z,16.40
2018-10-18T01:05:49.893Z,16.20
2018-10-18T01:06:50.069Z,16.50
2018-10-18T01:07:50.245Z,16.60
2018-10-18T01:08:50.435Z,17.20
2018-10-18T01:09:50.593Z,16.20
2018-10-18T01:10:50.785Z,17.50
2018-10-18T01:11:50.956Z,17.20
2018-10-18T01:12:51.115Z,16.80
2018-10-18T01:13:51.283Z,17.00
2018-10-18T01:14:51.460Z,16.80
2018-10-18T01:15:51.621Z,16.60
2018-10-18T01:16:51.799Z,16.40
2018-10-18T01:17:51.979Z,16.80
2018-10-18T01:18:52.154Z,17.20
2018-10-18T01:19:52.323Z,17.20
2018-10-18T01:20:52.536Z,18.20
2018-10-18T01:21:52.655Z,17.90
2018-10-18T01:22:52.846Z,18.60
2018-10-18T01:23:53.037Z,18.10
2018-10-18T01:24:53.172Z,17.40
2018-10-18T01:25:53.381Z,19.00
2018-10-18T01:26:53.515Z,19.20
2018-10-18T01:27:53.701Z,18.40
2018-10-18T01:28:53.874Z,18.20
2018-10-18T01:29:54.059Z,17.50
2018-10-18T01:30:54.238Z,18.20
2018-10-18T01:31:54.447Z,17.70
2018-10-18T01:32:54.589Z,18.50
2018-10-18T01:33:54.754Z,18.20
2018-10-18T01:34:54.904Z,17.90
2018-10-18T01:35:55.116Z,17.60
2018-10-18T01:36:55.251Z,17.60
2018-10-18T01:37:55.438Z,18.20
2018-10-18T01:38:55.595Z,19.50
2018-10-18T01:39:55.783Z,19.00
2018-10-18T01:40:55.954Z,17.90
2018-10-18T01:41:56.135Z,18.40
2018-10-18T01:42:56.290Z,18.60
2018-10-18T01:43:56.467Z,18.10
2018-10-18T01:44:56.654Z,18.30
2018-10-18T01:45:56.815Z,17.10
2018-10-18T01:46:56.993Z,17.50
2018-10-18T01:47:57.220Z,18.90
2018-10-18T01:48:57.332Z,18.60
2018-10-18T01:49:57.567Z,18.60
2018-10-18T01:50:57.663Z,18.90
2018-10-18T01:51:57.832Z,19.00
2018-10-18T01:52:57.988Z,19.10
2018-10-18T01:53:58.221Z,17.60
2018-10-18T01:54:58.339Z,18.90
2018-10-18T01:55:58.543Z,18.70
2018-10-18T01:56:58.692Z,18.00
2018-10-18T01:57:58.856Z,18.70
2018-10-18T01:58:59.008Z,18.30
2018-10-18T01:59:59.202Z,19.00
2018-10-18T02:00:59.360Z,18.20
2018-10-18T02:01:59.567Z,19.30
2018-10-18T02:02:59.705Z,19.20
2018-10-18T02:03:59.882Z,19.20
2018-10-18T02:05:00.056Z,20.20
2018-10-18T02:06:00.240Z,19.80
2018-10-18T02:07:00.404Z,19.70
2018-10-18T02:08:00.647Z,19.90
2018-10-18T02:09:00.775Z,19.50
2018-10-18T02:10:00.948Z,20.50
2018-10-18T02:11:01.131Z,20.20
2018-10-18T02:12:01.336Z,21.20
2018-10-18T02:13:01.476Z,20.80
2018-10-18T02:14:01.656Z,20.50
2018-10-18T02:15:01.832Z,19.90
2018-10-18T02:16:01.998Z,20.00
2018-10-18T02:17:02.176Z,18.50
2018-10-18T02:18:02.393Z,18.70
2018-10-18T02:19:02.519Z,19.00
2018-10-18T02:20:02.696Z,17.80
2018-10-18T02:21:02.877Z,17.60
2018-10-18T02:22:03.053Z,17.10
2018-10-18T02:23:03.211Z,16.90
2018-10-18T02:24:03.434Z,17.00
2018-10-18T02:25:03.603Z,16.70
2018-10-18T02:26:03.726Z,16.90
2018-10-18T02:27:03.907Z,16.50
2018-10-18T02:28:04.074Z,15.70
2018-10-18T02:29:04.253Z,16.20
2018-10-18T02:30:04.493Z,15.60
2018-10-18T02:31:04.606Z,15.40
2018-10-18T02:32:04.793Z,14.90
2018-10-18T02:33:04.957Z,14.80
2018-10-18T02:34:05.134Z,15.10
2018-10-18T02:35:05.319Z,14.60
2018-10-18T02:36:05.606Z,14.10
2018-10-18T02:37:05.654Z,15.10
2018-10-18T02:38:05.823Z,13.20
2018-10-18T02:39:05.995Z,13.20
2018-10-18T02:40:06.168Z,13.80
2018-10-18T02:41:06.346Z,13.90
2018-10-18T02:42:06.589Z,13.40
2018-10-18T02:43:06.703Z,14.10
2018-10-18T02:44:06.888Z,13.90
2018-10-18T02:45:07.067Z,14.30
2018-10-18T02:46:07.252Z,13.40
2018-10-18T02:47:07.411Z,14.00
2018-10-18T02:48:07.621Z,14.30
2018-10-18T02:49:07.747Z,14.50
2018-10-18T02:50:07.934Z,14.10
2018-10-18T02:51:08.096Z,14.60
2018-10-18T02:52:08.278Z,14.50
2018-10-18T02:53:08.440Z,14.00
2018-10-18T02:54:08.737Z,14.30
2018-10-18T02:55:08.809Z,13.80
2018-10-18T02:56:08.990Z,13.70
2018-10-18T02:57:09.160Z,13.60
2018-10-18T02:58:09.335Z,13.90
2018-10-18T02:59:09.623Z,14.00
2018-10-18T03:00:09.708Z,14.40
2018-10-18T03:01:09.854Z,12.90
2018-10-18T03:02:10.065Z,13.40
2018-10-18T03:03:10.215Z,13.00
2018-10-18T03:04:10.371Z,12.80
2018-10-18T03:05:10.541Z,12.60
2018-10-18T03:06:10.799Z,12.90
2018-10-18T03:07:10.873Z,13.00
2018-10-18T03:08:11.046Z,12.80
2018-10-18T03:09:11.214Z,12.70
2018-10-18T03:10:11.372Z,11.70
2018-10-18T03:11:11.546Z,11.60
2018-10-18T03:12:11.741Z,12.40
2018-10-18T03:13:11.897Z,11.70
2018-10-18T03:14:12.080Z,11.20
2018-10-18T03:15:12.248Z,11.20
2018-10-18T03:16:12.551Z,10.80
2018-10-18T03:17:12.594Z,10.60
2018-10-18T03:18:12.856Z,10.90
2018-10-18T03:19:12.930Z,10.90
2018-10-18T03:20:13.109Z,10.60
2018-10-18T03:21:13.279Z,10.30
2018-10-18T03:22:13.446Z,11.00
2018-10-18T03:23:13.629Z,10.20
2018-10-18T03:24:13.872Z,10.30
2018-10-18T03:25:13.980Z,11.00
2018-10-18T03:26:14.123Z,10.70
2018-10-18T03:27:14.306Z,10.70
2018-10-18T03:28:14.479Z,11.50
2018-10-18T03:29:14.700Z,10.90
2018-10-18T03:30:15.115Z,10.70
2018-10-18T03:31:15.084Z,10.60
2018-10-18T03:32:15.261Z,10.90
2018-10-18T03:33:15.421Z,10.40
2018-10-18T03:34:15.594Z,10.80
2018-10-18T03:35:15.827Z,10.60
2018-10-18T03:36:16.006Z,11.40
2018-10-18T03:37:16.116Z,10.60
2018-10-18T03:38:16.299Z,11.10
2018-10-18T03:39:16.463Z,11.30
2018-10-18T03:40:16.634Z,11.20
2018-10-18T03:41:16.817Z,10.40
2018-10-18T03:42:17.057Z,11.30
2018-10-18T03:43:17.139Z,11.10
2018-10-18T03:44:17.300Z,11.40
2018-10-18T03:45:17.486Z,10.90
2018-10-18T03:46:17.627Z,11.30
2018-10-18T03:47:17.795Z,11.10
2018-10-18T03:48:18.117Z,11.30
2018-10-18T03:49:18.134Z,11.10
2018-10-18T03:50:18.299Z,11.10
2018-10-18T03:51:18.485Z,10.90
2018-10-18T03:52:18.645Z,10.70
2018-10-18T03:53:18.820Z,11.40
2018-10-18T03:54:19.103Z,10.80
2018-10-18T03:55:19.138Z,10.60
2018-10-18T03:56:19.303Z,11.20
2018-10-18T03:57:19.506Z,10.50
2018-10-18T03:58:19.677Z,11.30
2018-10-18T03:59:19.941Z,11.60
2018-10-18T04:00:20.166Z,11.10
2018-10-18T04:01:20.193Z,10.70
2018-10-18T04:02:20.348Z,11.40
2018-10-18T04:03:20.510Z,11.10
2018-10-18T04:05:20.871Z,10.70
2018-10-18T04:06:21.092Z,11.20
2018-10-18T04:07:21.191Z,10.60
2018-10-18T04:08:21.370Z,10.80
2018-10-18T04:09:21.546Z,11.40
2018-10-18T04:10:21.707Z,11.40
2018-10-18T04:11:21.871Z,11.60
2018-10-18T04:12:22.136Z,10.70
2018-10-18T04:13:22.227Z,10.70
2018-10-18T04:14:22.387Z,11.20
2018-10-18T04:15:22.551Z,11.60
2018-10-18T04:16:22.725Z,11.20
2018-10-18T04:17:22.900Z,10.80
2018-10-18T04:18:23.151Z,11.20
2018-10-18T04:19:23.289Z,11.40
2018-10-18T04:20:23.464Z,11.30
2018-10-18T04:21:23.607Z,11.90
2018-10-18T04:22:23.777Z,11.60
2018-10-18T04:23:23.967Z,11.70
2018-10-18T04:24:24.137Z,11.80
2018-10-18T04:25:24.346Z,11.40
2018-10-18T04:26:24.464Z,11.10
2018-10-18T04:27:24.631Z,11.40
2018-10-18T04:28:24.790Z,12.50
2018-10-18T04:29:24.977Z,12.30
2018-10-18T04:30:25.146Z,12.50
2018-10-18T04:31:25.328Z,12.30
2018-10-18T04:32:25.501Z,12.40
2018-10-18T04:33:25.672Z,12.50
2018-10-18T04:34:25.845Z,12.30
2018-10-18T04:35:26.020Z,12.20
2018-10-18T04:36:26.197Z,12.10
2018-10-18T04:37:26.550Z,12.90
2018-10-18T04:38:26.548Z,12.40
2018-10-18T04:39:26.728Z,12.60
2018-10-18T04:40:26.890Z,12.70
2018-10-18T04:41:27.066Z,12.00
2018-10-18T04:42:27.252Z,11.70
2018-10-18T04:43:27.430Z,11.80
2018-10-18T04:44:27.589Z,11.50
2018-10-18T04:45:27.770Z,11.50
2018-10-18T04:46:27.959Z,11.70
2018-10-18T04:47:28.271Z,11.50
2018-10-18T04:48:28.385Z,11.30
2018-10-18T04:49:28.484Z,12.20
2018-10-18T04:50:28.678Z,11.50
2018-10-18T04:51:28.822Z,12.60
2018-10-18T04:52:29.018Z,12.50
2018-10-18T04:53:29.185Z,11.80
2018-10-18T04:54:29.356Z,11.80
2018-10-18T04:55:29.533Z,11.40
2018-10-18T04:56:29.711Z,11.40
2018-10-18T04:57:29.887Z,10.90
2018-10-18T04:58:30.060Z,11.60
2018-10-18T04:59:30.234Z,12.00
2018-10-18T05:00:30.404Z,11.20
2018-10-18T05:01:30.648Z,12.10
2018-10-18T05:02:30.778Z,11.60
2018-10-18T05:03:30.925Z,11.50
2018-10-18T05:04:31.095Z,10.80
2018-10-18T05:05:31.274Z,11.00
2018-10-18T05:06:31.451Z,11.30
2018-10-18T05:07:31.628Z,10.80
2018-10-18T05:08:31.798Z,10.70
2018-10-18T05:09:31.972Z,11.00
2018-10-18T05:10:32.140Z,10.50
2018-10-18T05:12:32.560Z,10.40
2018-10-18T05:13:32.674Z,10.90
2018-10-18T05:14:32.833Z,10.80
2018-10-18T05:15:33.011Z,10.70
2018-10-18T05:17:33.355Z,11.40
2018-10-18T05:18:33.518Z,11.20
2018-10-18T05:19:33.712Z,11.10
2018-10-18T05:20:33.867Z,11.20
2018-10-18T05:21:34.047Z,11.30
2018-10-18T05:22:34.214Z,11.60
2018-10-18T05:23:34.394Z,12.00
2018-10-18T05:24:34.569Z,12.50
2018-10-18T05:25:34.818Z,11.40
2018-10-18T05:26:34.929Z,11.70
2018-10-18T05:27:35.103Z,11.80
2018-10-18T05:28:35.280Z,12.20
2018-10-18T05:29:35.454Z,11.60
2018-10-18T05:30:35.629Z,11.40
2018-10-18T05:31:35.832Z,11.40
2018-10-18T05:32:36.150Z,11.80
2018-10-18T05:33:36.273Z,11.30
2018-10-18T05:34:36.429Z,12.00
2018-10-18T05:35:36.628Z,12.40
2018-10-18T05:36:36.801Z,13.20
2018-10-18T05:37:36.996Z,11.70
2018-10-18T05:38:37.134Z,12.10
2018-10-18T05:39:37.291Z,12.10
2018-10-18T05:40:37.457Z,12.60
2018-10-18T05:41:37.646Z,12.60
2018-10-18T05:42:37.819Z,12.40
2018-10-18T05:43:37.996Z,11.50
2018-10-18T05:44:38.165Z,12.00
2018-10-18T05:45:38.337Z,11.20
2018-10-18T05:46:38.544Z,12.30
2018-10-18T05:47:38.670Z,11.90
2018-10-18T05:48:38.847Z,12.30
2018-10-18T05:49:39.033Z,12.00
2018-10-18T05:50:39.202Z,11.00
2018-10-18T05:51:39.387Z,11.70
2018-10-18T05:52:39.569Z,11.60
2018-10-18T05:53:39.864Z,11.60
2018-10-18T05:54:39.908Z,11.40
2018-10-18T05:55:40.063Z,11.10
2018-10-18T05:56:40.232Z,11.90
2018-10-18T05:57:40.416Z,11.80
2018-10-18T05:58:40.596Z,11.70
2018-10-18T05:59:40.764Z,11.70
2018-10-18T06:00:40.919Z,12.10
2018-10-18T06:01:41.120Z,11.10
2018-10-18T06:02:41.268Z,10.90
2018-10-18T06:03:41.427Z,10.60
2018-10-18T06:04:41.632Z,11.30
2018-10-18T06:05:41.807Z,11.50
2018-10-18T06:06:41.977Z,11.50
2018-10-18T06:07:42.132Z,11.70
2018-10-18T06:08:42.344Z,11.50
2018-10-18T06:09:42.496Z,12.00
2018-10-18T06:10:42.666Z,11.70
2018-10-18T06:11:42.818Z,11.90
2018-10-18T06:12:42.977Z,10.70
2018-10-18T06:13:43.133Z,11.70
2018-10-18T06:14:43.300Z,12.00
2018-10-18T06:15:43.469Z,11.60
2018-10-18T06:16:43.663Z,11.80
2018-10-18T06:17:43.808Z,11.80
2018-10-18T06:18:43.975Z,11.60
2018-10-18T06:19:44.162Z,11.90
2018-10-18T06:20:44.304Z,11.30
2018-10-18T06:21:45.886Z,11.50
2018-10-18T06:22:44.748Z,11.50
2018-10-18T06:23:44.905Z,11.20
2018-10-18T06:24:45.065Z,11.10
2018-10-18T06:25:45.271Z,11.70
2018-10-18T06:26:47.624Z,11.30
2018-10-18T06:27:45.658Z,11.20
2018-10-18T06:28:45.820Z,10.50
2018-10-18T06:29:45.996Z,10.40
2018-10-18T06:30:46.168Z,11.30
2018-10-18T06:31:46.329Z,11.20
2018-10-18T06:32:46.516Z,11.90
2018-10-18T06:33:46.661Z,12.70
2018-10-18T06:34:46.840Z,11.30
2018-10-18T06:35:47.004Z,11.40
2018-10-18T06:36:47.180Z,11.30
2018-10-18T06:37:47.365Z,11.30
2018-10-18T06:38:47.538Z,12.00
2018-10-18T06:39:47.726Z,11.90
2018-10-18T06:40:47.909Z,11.30
2018-10-18T06:41:48.087Z,11.60
2018-10-18T06:42:48.251Z,11.90
2018-10-18T06:43:48.428Z,11.80
2018-10-18T06:44:48.585Z,11.90
2018-10-18T06:45:48.784Z,11.90
2018-10-18T06:46:48.995Z,11.40
2018-10-18T06:47:49.365Z,12.50
2018-10-18T06:48:49.390Z,13.50
2018-10-18T06:49:49.524Z,14.40
2018-10-18T06:50:49.690Z,12.70
2018-10-18T06:51:49.873Z,12.60
2018-10-18T06:52:50.046Z,12.80
2018-10-18T06:53:50.223Z,12.90
2018-10-18T06:54:50.402Z,12.60
2018-10-18T06:55:50.580Z,12.40
2018-10-18T06:56:50.749Z,13.10
2018-10-18T06:57:50.936Z,12.60
2018-10-18T06:58:51.130Z,12.60
2018-10-18T06:59:51.479Z,12.90
2018-10-18T07:00:51.493Z,13.20
2018-10-18T07:01:51.648Z,13.70
2018-10-18T07:02:51.825Z,13.20
2018-10-18T07:03:51.983Z,13.40
2018-10-18T07:04:52.153Z,13.80
2018-10-18T07:05:52.378Z,13.30
2018-10-18T07:06:52.500Z,13.50
2018-10-18T07:07:52.662Z,14.10
2018-10-18T07:08:52.907Z,13.60
2018-10-18T07:09:52.976Z,14.90
2018-10-18T07:10:53.249Z,15.60
2018-10-18T07:11:53.322Z,15.00
2018-10-18T07:12:53.495Z,14.20
2018-10-18T07:13:53.679Z,14.10
2018-10-18T07:14:53.843Z,14.00
2018-10-18T07:15:54.009Z,13.90
2018-10-18T07:16:54.169Z,14.90
2018-10-18T07:17:54.350Z,13.90
2018-10-18T07:18:54.517Z,22.60
2018-10-18T07:19:54.702Z,25.90
2018-10-18T07:20:54.867Z,16.80
2018-10-18T07:21:55.036Z,18.80
2018-10-18T07:22:55.207Z,24.00
2018-10-18T07:23:55.412Z,14.50
2018-10-18T07:24:55.559Z,14.30
2018-10-18T07:25:55.728Z,14.50
2018-10-18T07:26:55.873Z,15.40
2018-10-18T07:27:56.054Z,15.40
2018-10-18T07:28:56.208Z,15.80
2018-10-18T07:29:56.376Z,17.60
2018-10-18T07:30:56.542Z,16.20
2018-10-18T07:31:56.703Z,16.40
2018-10-18T07:32:56.881Z,15.20
2018-10-18T07:33:57.052Z,15.30
2018-10-18T07:34:57.247Z,14.70
2018-10-18T07:35:57.406Z,14.40
2018-10-18T07:36:57.554Z,14.50
2018-10-18T07:37:57.738Z,14.80
2018-10-18T07:38:57.911Z,15.70
2018-10-18T07:40:58.280Z,18.60
2018-10-18T07:41:58.441Z,15.20
2018-10-18T07:42:58.616Z,15.00
2018-10-18T07:43:58.756Z,14.70
2018-10-18T07:44:58.938Z,14.90
2018-10-18T07:45:59.113Z,15.20
2018-10-18T07:46:59.451Z,14.90
2018-10-18T07:47:59.539Z,15.00
2018-10-18T07:48:59.652Z,14.60
2018-10-18T07:49:59.819Z,15.10
2018-10-18T07:50:59.998Z,15.00
2018-10-18T07:52:00.135Z,17.10
2018-10-18T07:53:00.374Z,16.50
2018-10-18T07:54:00.495Z,15.60
2018-10-18T07:55:00.646Z,16.70
2018-10-18T07:56:00.849Z,17.00
2018-10-18T07:57:00.984Z,16.70
2018-10-18T07:58:01.177Z,16.70
2018-10-18T07:59:01.338Z,16.40
2018-10-18T08:00:01.619Z,16.50
2018-10-18T08:01:01.675Z,16.80
2018-10-18T08:02:01.836Z,17.10
2018-10-18T08:03:02.020Z,16.60
2018-10-18T08:04:02.195Z,16.50
2018-10-18T08:05:02.383Z,17.90
2018-10-18T08:06:02.553Z,19.00
2018-10-18T08:07:02.801Z,18.70
2018-10-18T08:08:02.901Z,17.30
2018-10-18T08:09:03.081Z,17.00
2018-10-18T08:10:03.278Z,17.70
2018-10-18T08:11:03.545Z,17.60
2018-10-18T08:12:03.622Z,18.50
2018-10-18T08:13:03.847Z,18.60
2018-10-18T08:14:03.988Z,19.30
2018-10-18T08:15:04.153Z,18.90
2018-10-18T08:16:04.301Z,19.30
2018-10-18T08:17:04.586Z,18.60
2018-10-18T08:18:04.667Z,18.20
2018-10-18T08:19:04.966Z,16.70
2018-10-18T08:20:05.039Z,18.60
2018-10-18T08:21:05.211Z,19.00
2018-10-18T08:22:05.399Z,19.70
2018-10-18T08:23:05.563Z,18.50
2018-10-18T08:24:05.740Z,18.80
2018-10-18T08:25:05.950Z,19.30
2018-10-18T08:26:06.080Z,17.90
2018-10-18T08:27:06.246Z,18.60
2018-10-18T08:28:06.428Z,18.50
2018-10-18T08:29:06.610Z,18.90
2018-10-18T08:30:06.795Z,19.30
2018-10-18T08:31:07.050Z,19.70
2018-10-18T08:32:07.153Z,19.90
2018-10-18T08:33:07.325Z,18.70
2018-10-18T08:34:07.542Z,19.30
2018-10-18T08:35:07.716Z,20.60
2018-10-18T08:36:07.868Z,18.90
2018-10-18T08:37:08.159Z,19.80
2018-10-18T08:38:08.234Z,20.20
2018-10-18T08:39:08.406Z,19.60
2018-10-18T08:40:08.580Z,20.30
2018-10-18T08:41:08.758Z,19.50
2018-10-18T08:42:08.920Z,21.30
2018-10-18T08:43:09.165Z,23.00
2018-10-18T08:44:09.276Z,20.80
2018-10-18T08:45:09.413Z,21.60
2018-10-18T08:46:09.595Z,21.30
2018-10-18T08:47:09.837Z,21.40
2018-10-18T08:48:10.025Z,21.80
2018-10-18T08:49:10.264Z,21.80
2018-10-18T08:50:10.311Z,21.30
2018-10-18T08:51:10.471Z,21.70
2018-10-18T08:52:10.633Z,22.60
2018-10-18T08:53:11.056Z,20.80
2018-10-18T08:54:10.950Z,22.20
2018-10-18T08:55:11.238Z,21.80
2018-10-18T08:56:11.308Z,21.30
2018-10-18T08:57:11.491Z,20.90
2018-10-18T08:58:11.665Z,21.60
2018-10-18T08:59:11.884Z,21.50
2018-10-18T09:00:12.052Z,21.00
2018-10-18T09:01:12.309Z,21.90
2018-10-18T09:02:12.412Z,22.40
2018-10-18T09:03:12.573Z,24.50
2018-10-18T09:04:12.753Z,24.60
2018-10-18T09:05:12.937Z,26.00
2018-10-18T09:06:13.107Z,24.50
2018-10-18T09:07:13.378Z,24.20
2018-10-18T09:08:13.441Z,23.80
2018-10-18T09:09:13.755Z,24.30
2018-10-18T09:10:13.773Z,24.30
2018-10-18T09:11:13.956Z,23.80
2018-10-18T09:12:14.118Z,23.10
2018-10-18T09:13:14.463Z,23.00
2018-10-18T09:14:14.469Z,22.50
2018-10-18T09:15:14.630Z,22.00
2018-10-18T09:16:14.814Z,31.30
2018-10-18T09:17:14.978Z,25.60
2018-10-18T09:18:15.133Z,20.20
2018-10-18T09:19:15.385Z,19.50
2018-10-18T09:20:15.508Z,19.60
2018-10-18T09:21:15.671Z,20.70
2018-10-18T09:22:15.845Z,20.70
2018-10-18T09:23:16.064Z,20.10
2018-10-18T09:24:16.234Z,83.40
2018-10-18T09:25:16.731Z,30.50
2018-10-18T09:26:16.626Z,38.30
2018-10-18T09:27:16.770Z,24.30
2018-10-18T09:28:16.947Z,25.20
2018-10-18T09:29:17.146Z,21.30
2018-10-18T09:30:17.400Z,22.20
2018-10-18T09:31:17.632Z,21.20
2018-10-18T09:32:17.666Z,20.50
2018-10-18T09:33:17.838Z,21.00
2018-10-18T09:34:18.010Z,21.20
2018-10-18T09:35:18.224Z,20.80
2018-10-18T09:36:18.397Z,21.40
2018-10-18T09:37:18.644Z,21.70
2018-10-18T09:38:18.782Z,20.80
2018-10-18T09:39:18.905Z,20.70
2018-10-18T09:40:19.106Z,21.80
2018-10-18T09:41:19.297Z,21.90
2018-10-18T09:42:19.512Z,21.80
2018-10-18T09:43:19.758Z,21.90
2018-10-18T09:44:19.907Z,20.80
2018-10-18T09:45:20.063Z,20.50
2018-10-18T09:46:20.275Z,19.50
2018-10-18T09:47:20.449Z,21.00
2018-10-18T09:48:20.636Z,21.00
2018-10-18T09:49:20.828Z,20.80
2018-10-18T09:50:20.995Z,21.40
2018-10-18T09:51:21.177Z,21.60
2018-10-18T09:52:21.357Z,21.40
2018-10-18T09:53:21.532Z,30.10
2018-10-18T09:54:21.703Z,32.90
2018-10-18T09:55:21.981Z,27.80
2018-10-18T09:56:22.085Z,25.60
2018-10-18T09:57:22.264Z,23.70
2018-10-18T09:58:22.508Z,22.90
2018-10-18T09:59:22.687Z,22.50
2018-10-18T10:00:22.894Z,22.20
2018-10-18T10:01:23.101Z,23.00
2018-10-18T10:02:23.342Z,22.40
2018-10-18T10:03:23.551Z,20.90
2018-10-18T10:04:23.764Z,21.70
2018-10-18T10:05:23.920Z,21.80
2018-10-18T10:06:24.115Z,22.00
2018-10-18T10:07:24.355Z,21.70
2018-10-18T10:08:24.535Z,21.20
2018-10-18T10:09:24.740Z,21.00
2018-10-18T10:10:24.951Z,20.90
2018-10-18T10:11:25.158Z,22.40
2018-10-18T10:12:25.343Z,34.00
2018-10-18T10:13:25.668Z,25.70
2018-10-18T10:14:25.727Z,23.80
2018-10-18T10:15:25.934Z,22.40
2018-10-18T10:16:26.085Z,21.30
2018-10-18T10:17:26.312Z,22.20
2018-10-18T10:18:26.427Z,22.50
2018-10-18T10:19:26.597Z,26.00
2018-10-18T10:20:26.781Z,25.00
2018-10-18T10:21:26.938Z,22.10
2018-10-18T10:22:27.121Z,23.40
2018-10-18T10:23:27.284Z,21.70
2018-10-18T10:24:27.476Z,21.40
2018-10-18T10:25:27.646Z,22.10
2018-10-18T10:26:27.797Z,21.30
2018-10-18T10:27:27.980Z,28.70
2018-10-18T10:28:28.156Z,46.90
2018-10-18T10:29:28.327Z,62.80
2018-10-18T10:30:28.614Z,23.80
2018-10-18T10:31:28.701Z,35.00
2018-10-18T10:32:28.896Z,26.70
2018-10-18T10:33:29.124Z,22.40
2018-10-18T10:34:29.271Z,25.60
2018-10-18T10:35:29.573Z,24.50
2018-10-18T10:36:29.616Z,23.40
2018-10-18T10:37:29.786Z,23.80
2018-10-18T10:38:29.987Z,26.00
2018-10-18T10:39:30.103Z,33.20
2018-10-18T10:40:30.312Z,26.20
2018-10-18T10:41:30.441Z,34.80
2018-10-18T10:42:30.624Z,33.50
2018-10-18T10:43:30.811Z,43.00
2018-10-18T10:44:31.041Z,26.30
2018-10-18T10:45:31.206Z,24.30
2018-10-18T10:46:31.368Z,27.20
2018-10-18T10:47:31.591Z,25.50
2018-10-18T10:48:31.757Z,41.70
2018-10-18T10:49:31.961Z,27.20
2018-10-18T10:50:32.176Z,29.40
2018-10-18T10:51:32.309Z,39.50
2018-10-18T10:52:32.488Z,23.80
2018-10-18T10:53:32.662Z,24.80
2018-10-18T10:54:32.914Z,23.80
2018-10-18T10:55:33.000Z,23.60
2018-10-18T10:56:33.190Z,24.20
2018-10-18T10:57:33.364Z,24.30
2018-10-18T10:58:33.596Z,24.60
2018-10-18T10:59:33.764Z,24.40
2018-10-18T11:00:33.907Z,25.20
2018-10-18T11:01:34.091Z,24.60
2018-10-18T11:02:34.273Z,28.40
2018-10-18T11:03:34.443Z,26.60
2018-10-18T11:04:34.628Z,28.20
2018-10-18T11:05:34.870Z,24.60
2018-10-18T11:06:34.942Z,24.60
2018-10-18T11:07:35.131Z,25.50
2018-10-18T11:08:35.316Z,25.50
2018-10-18T11:09:35.575Z,26.80
2018-10-18T11:10:35.661Z,33.00
2018-10-18T11:11:35.843Z,29.70
2018-10-18T11:12:36.025Z,27.80
2018-10-18T11:13:36.215Z,26.90
2018-10-18T11:14:36.441Z,27.40
2018-10-18T11:15:36.504Z,26.30
2018-10-18T11:16:36.704Z,26.90
2018-10-18T11:17:36.864Z,27.10
2018-10-18T11:18:37.054Z,25.90
2018-10-18T11:19:37.203Z,25.30
2018-10-18T11:20:37.374Z,26.50
2018-10-18T11:21:37.571Z,30.60
2018-10-18T11:22:37.740Z,27.50
2018-10-18T11:23:37.917Z,28.80
2018-10-18T11:24:38.180Z,32.60
2018-10-18T11:25:38.262Z,29.80
2018-10-18T11:26:38.439Z,29.40
2018-10-18T11:27:38.620Z,29.70
2018-10-18T11:28:38.812Z,37.00
2018-10-18T11:29:39.194Z,34.60
2018-10-18T11:30:39.169Z,39.10
2018-10-18T11:31:39.362Z,33.60
2018-10-18T11:32:39.541Z,33.00
2018-10-18T11:33:39.743Z,33.00
2018-10-18T11:34:39.900Z,32.30
2018-10-18T11:35:40.078Z,28.80
2018-10-18T11:37:40.429Z,27.10
2018-10-18T11:38:40.607Z,29.60
2018-10-18T11:39:40.782Z,29.60
2018-10-18T11:40:40.956Z,27.70
2018-10-18T11:41:41.154Z,25.30
2018-10-18T11:42:41.376Z,25.70
2018-10-18T11:43:41.493Z,26.20
2018-10-18T11:44:41.671Z,29.30
2018-10-18T11:45:41.871Z,25.70
2018-10-18T11:46:42.025Z,25.70
2018-10-18T11:47:42.213Z,25.70
2018-10-18T11:48:42.397Z,26.10
2018-10-18T11:49:42.568Z,27.00
2018-10-18T11:50:42.750Z,35.90
2018-10-18T11:51:43.109Z,28.80
2018-10-18T11:52:43.110Z,45.50
2018-10-18T11:53:43.284Z,29.50
2018-10-18T11:54:43.465Z,27.50
2018-10-18T11:55:43.657Z,25.90
2018-10-18T11:56:43.844Z,27.30
2018-10-18T11:57:44.035Z,29.70
2018-10-18T11:58:44.216Z,36.00
2018-10-18T11:59:44.380Z,35.20
2018-10-18T12:00:44.566Z,28.00
2018-10-18T12:01:44.730Z,28.10
2018-10-18T12:02:44.991Z,29.00
2018-10-18T12:03:45.676Z,28.80
2018-10-18T12:04:45.304Z,30.10
2018-10-18T12:05:45.532Z,28.90
2018-10-18T12:06:45.687Z,28.70
2018-10-18T12:07:45.833Z,28.30
2018-10-18T12:08:46.023Z,32.50
2018-10-18T12:09:46.221Z,28.10
2018-10-18T12:10:46.374Z,29.40
2018-10-18T12:11:46.567Z,32.00
2018-10-18T12:12:47.212Z,32.80
2018-10-18T12:13:46.899Z,28.70
2018-10-18T12:14:47.201Z,29.30
2018-10-18T12:15:47.265Z,26.60
2018-10-18T12:16:47.414Z,29.00
2018-10-18T12:17:50.620Z,33.40
2018-10-18T12:18:48.633Z,36.40
2018-10-18T12:19:47.902Z,41.60
2018-10-18T12:20:48.069Z,37.60
2018-10-18T12:21:48.242Z,34.20
2018-10-18T12:22:48.411Z,31.90
2018-10-18T12:24:48.772Z,41.10
2018-10-18T12:25:48.961Z,33.10
2018-10-18T12:26:49.130Z,34.20
2018-10-18T12:27:49.265Z,40.50
2018-10-18T12:28:49.439Z,36.50
2018-10-18T12:29:49.610Z,30.80
2018-10-18T12:30:49.777Z,26.90
2018-10-18T12:31:50.002Z,26.20
2018-10-18T12:32:50.206Z,25.50
2018-10-18T12:33:50.445Z,26.40
2018-10-18T12:34:50.861Z,24.40
2018-10-18T12:35:51.371Z,30.50
2018-10-18T12:36:50.965Z,39.80
2018-10-18T12:37:51.154Z,39.90
2018-10-18T12:38:51.342Z,29.00
2018-10-18T12:39:51.546Z,24.80
2018-10-18T12:40:51.845Z,23.50
2018-10-18T12:41:51.990Z,24.50
2018-10-18T12:42:52.122Z,24.60
2018-10-18T12:43:52.304Z,23.70
2018-10-18T12:44:52.418Z,24.60
2018-10-18T12:45:52.610Z,23.90
2018-10-18T12:46:52.782Z,22.70
2018-10-18T12:47:52.981Z,22.40
2018-10-18T12:48:53.142Z,23.10
2018-10-18T12:49:55.840Z,22.90
2018-10-18T12:50:53.550Z,21.60
2018-10-18T12:51:53.676Z,22.70
2018-10-18T12:52:53.854Z,21.50
2018-10-18T12:53:54.025Z,21.20
2018-10-18T12:54:56.175Z,23.40
2018-10-18T12:55:55.529Z,26.20
2018-10-18T12:56:54.596Z,31.50
2018-10-18T12:57:54.806Z,25.10
2018-10-18T12:58:54.993Z,22.90
2018-10-18T12:59:55.195Z,21.10
2018-10-18T13:00:55.282Z,23.10
2018-10-18T13:01:55.499Z,21.30
2018-10-18T13:02:55.650Z,21.10